CheckWX is a tool to help pilots better visualize weather data.  It is not intended as a substitute for an official pre-flight weather briefing.

19:57:48 UTC

KSMO METAR
Santa Monica Municipal Airport
Santa Monica, California, USA
Current

1 hour ago

KSMO 161851Z 21007KT 6SM HZ CLR 16/11 A3012 RMK AO2 SLP199 T01610106
Observed
Feb-16 @ 18:51 UTC
Wind
  • 210° at 7 KTS
Visibility
6 SM
Flight Rules
VFR
Conditions
Haze
Cloud Levels
  • Clear skies
Temperature
16°C / 61°F
Dewpoint
11°C / 52°F
Humidity
72%
Altimeter
30.12" Hg
Pressure
1020.02 hPa
Previous

2 hours ago

KSMO 161751Z 15003KT 9SM CLR 16/08 A3014 RMK AO2 SLP205 T01610078 10161 20094 58004
Observed
Feb-16 @ 17:51 UTC
Wind
  • 150° at 3 KTS
Visibility
9 SM
Flight Rules
VFR
Cloud Levels
  • Clear skies
Temperature
16°C / 61°F
Dewpoint
C / 46°F
Humidity
59%
Altimeter
30.14" Hg
Pressure
1020.62 hPa
Previous

3 hours ago

KSMO 161651Z VRB03KT 9SM CLR 14/07 A3016 RMK AO2 SLP212 T01390072
Observed
Feb-16 @ 16:51 UTC
Wind
  • Variable at 3 KTS
Visibility
9 SM
Flight Rules
VFR
Cloud Levels
  • Clear skies
Temperature
14°C / 57°F
Dewpoint
C / 45°F
Humidity
63%
Altimeter
30.16" Hg
Pressure
1021.32 hPa